createdAt,value
2023-03-19T00:01:10.375Z,14.49
2023-03-19T00:03:36.826Z,14.50
2023-03-19T00:06:03.188Z,14.50
2023-03-19T00:08:29.543Z,14.50
2023-03-19T00:10:56.038Z,14.33
2023-03-19T00:13:22.405Z,14.17
2023-03-19T00:15:48.758Z,14.27
2023-03-19T00:18:15.095Z,14.28
2023-03-19T00:20:41.480Z,14.27
2023-03-19T00:23:07.808Z,14.25
2023-03-19T00:25:34.291Z,14.13
2023-03-19T00:28:00.766Z,14.07
2023-03-19T00:30:27.218Z,13.95
2023-03-19T00:32:53.632Z,14.04
2023-03-19T00:35:19.993Z,13.94
2023-03-19T00:37:46.542Z,13.87
2023-03-19T00:40:12.926Z,13.92
2023-03-19T00:42:39.312Z,13.87
2023-03-19T00:45:05.661Z,13.93
2023-03-19T00:47:32.006Z,13.98
2023-03-19T00:49:58.348Z,14.02
2023-03-19T00:52:24.672Z,14.08
2023-03-19T00:54:51.068Z,14.12
2023-03-19T00:57:17.487Z,14.18
2023-03-19T00:59:45.899Z,14.19
2023-03-19T01:02:12.290Z,14.17
2023-03-19T01:04:38.661Z,14.19
2023-03-19T01:07:05.022Z,14.18
2023-03-19T01:09:31.410Z,14.24
2023-03-19T01:11:57.815Z,14.25
2023-03-19T01:14:24.180Z,14.26
2023-03-19T01:16:50.588Z,14.26
2023-03-19T01:19:17.021Z,14.24
2023-03-19T01:21:43.374Z,14.23
2023-03-19T01:24:09.698Z,14.20
2023-03-19T01:26:36.382Z,14.21
2023-03-19T01:29:02.723Z,14.18
2023-03-19T01:31:29.124Z,14.15
2023-03-19T01:33:55.505Z,14.14
2023-03-19T01:36:21.833Z,14.10
2023-03-19T01:38:48.182Z,14.09
2023-03-19T01:41:14.536Z,14.11
2023-03-19T01:43:40.924Z,14.10
2023-03-19T01:46:07.329Z,14.06
2023-03-19T01:48:33.743Z,14.04
2023-03-19T01:51:00.092Z,14.04
2023-03-19T01:53:26.414Z,14.06
2023-03-19T01:55:52.825Z,14.06
2023-03-19T01:58:19.167Z,14.03
2023-03-19T02:00:45.508Z,14.06
2023-03-19T02:03:11.845Z,14.04
2023-03-19T02:05:38.175Z,14.01
2023-03-19T02:08:04.548Z,14.00
2023-03-19T02:10:30.988Z,14.00
2023-03-19T02:12:57.390Z,14.00
2023-03-19T02:15:23.766Z,14.00
2023-03-19T02:17:50.113Z,14.04
2023-03-19T02:20:16.456Z,14.02
2023-03-19T02:22:42.802Z,13.98
2023-03-19T02:25:09.128Z,13.99
2023-03-19T02:27:35.499Z,13.96
2023-03-19T02:30:03.072Z,13.98
2023-03-19T02:32:29.493Z,13.96
2023-03-19T02:34:55.830Z,13.95
2023-03-19T02:37:22.177Z,13.95
2023-03-19T02:39:48.528Z,13.93
2023-03-19T02:42:14.891Z,13.93
2023-03-19T02:44:41.288Z,13.91
2023-03-19T02:47:07.643Z,13.92
2023-03-19T02:49:34.051Z,13.92
2023-03-19T02:52:00.447Z,13.92
2023-03-19T02:54:26.797Z,13.92
2023-03-19T02:56:53.147Z,13.92
2023-03-19T02:59:19.497Z,13.88
2023-03-19T03:01:45.867Z,13.90
2023-03-19T03:04:12.228Z,13.92
2023-03-19T03:06:38.570Z,13.96
2023-03-19T03:09:05.020Z,14.01
2023-03-19T03:11:31.353Z,14.01
2023-03-19T03:13:57.699Z,13.98
2023-03-19T03:16:24.063Z,13.98
2023-03-19T03:18:50.442Z,14.03
2023-03-19T03:21:16.778Z,14.04
2023-03-19T03:23:43.118Z,14.02
2023-03-19T03:26:09.488Z,14.01
2023-03-19T03:28:35.869Z,14.02
2023-03-19T03:31:02.238Z,14.02
2023-03-19T03:33:28.680Z,14.04
2023-03-19T03:35:55.095Z,14.02
2023-03-19T03:38:21.535Z,13.94
2023-03-19T03:40:47.943Z,13.85
2023-03-19T03:43:14.389Z,13.86
2023-03-19T03:45:40.792Z,13.88
2023-03-19T03:48:07.140Z,13.87
2023-03-19T03:50:33.925Z,13.89
2023-03-19T03:53:00.426Z,13.89
2023-03-19T03:55:26.804Z,13.88
2023-03-19T03:57:53.149Z,13.89
2023-03-19T04:00:19.506Z,13.87
2023-03-19T04:02:45.846Z,13.87
2023-03-19T04:05:12.261Z,13.82
2023-03-19T04:07:38.621Z,13.77
2023-03-19T04:10:05.077Z,13.77
2023-03-19T04:12:31.462Z,13.75
2023-03-19T04:14:57.829Z,13.76
2023-03-19T04:17:24.196Z,13.76
2023-03-19T04:19:50.570Z,13.65
2023-03-19T04:22:17.039Z,13.62
2023-03-19T04:24:43.425Z,13.66
2023-03-19T04:27:09.763Z,13.67
2023-03-19T04:29:36.167Z,13.66
2023-03-19T04:32:02.534Z,13.66
2023-03-19T04:34:28.899Z,13.59
2023-03-19T04:36:55.302Z,13.58
2023-03-19T04:39:21.630Z,13.55
2023-03-19T04:41:47.985Z,13.54
2023-03-19T04:44:14.426Z,13.53
2023-03-19T04:46:40.802Z,13.56
2023-03-19T04:49:07.145Z,13.33
2023-03-19T04:51:33.488Z,13.35
2023-03-19T04:53:59.854Z,13.39
2023-03-19T04:56:26.217Z,13.46
2023-03-19T04:58:52.623Z,13.50
2023-03-19T05:01:19.081Z,13.49
2023-03-19T05:03:45.435Z,13.51
2023-03-19T05:06:11.836Z,13.54
2023-03-19T05:08:38.193Z,13.54
2023-03-19T05:11:04.582Z,13.56
2023-03-19T05:13:30.944Z,13.61
2023-03-19T05:15:57.425Z,13.62
2023-03-19T05:18:23.833Z,13.46
2023-03-19T05:20:50.164Z,13.47
2023-03-19T05:23:16.504Z,13.51
2023-03-19T05:25:42.864Z,13.53
2023-03-19T05:28:09.291Z,13.52
2023-03-19T05:30:36.040Z,13.50
2023-03-19T05:33:02.717Z,13.48
2023-03-19T05:35:29.210Z,13.44
2023-03-19T05:37:55.603Z,13.48
2023-03-19T05:40:22.011Z,13.48
2023-03-19T05:42:48.464Z,13.47
2023-03-19T05:45:14.800Z,13.51
2023-03-19T05:47:41.114Z,13.52
2023-03-19T05:50:07.465Z,13.51
2023-03-19T05:52:33.864Z,13.54
2023-03-19T05:55:00.266Z,13.53
2023-03-19T05:57:26.663Z,13.39
2023-03-19T05:59:52.990Z,13.42
2023-03-19T06:02:19.553Z,13.45
2023-03-19T06:04:46.056Z,13.49
2023-03-19T06:07:12.538Z,13.48
2023-03-19T06:09:38.917Z,13.46
2023-03-19T06:12:05.249Z,13.45
2023-03-19T06:14:31.608Z,13.43
2023-03-19T06:16:58.031Z,13.46
2023-03-19T06:19:24.471Z,13.47
2023-03-19T06:21:50.811Z,13.51
2023-03-19T06:24:17.137Z,13.55
2023-03-19T06:26:43.449Z,13.57
2023-03-19T06:29:09.844Z,13.60
2023-03-19T06:31:36.355Z,13.61
2023-03-19T06:34:02.770Z,13.64
2023-03-19T06:36:29.139Z,13.61
2023-03-19T06:38:55.465Z,13.67
2023-03-19T06:41:21.825Z,13.66
2023-03-19T06:43:48.162Z,13.60
2023-03-19T06:46:14.580Z,13.60
2023-03-19T06:48:41.007Z,13.63
2023-03-19T06:51:07.391Z,13.66
2023-03-19T06:53:33.744Z,13.68
2023-03-19T06:56:00.064Z,13.70
2023-03-19T06:58:26.416Z,13.72
2023-03-19T07:00:52.816Z,13.74
2023-03-19T07:03:19.221Z,13.71
2023-03-19T07:05:45.568Z,13.73
2023-03-19T07:08:11.984Z,13.73
2023-03-19T07:10:38.432Z,13.59
2023-03-19T07:13:04.849Z,13.59
2023-03-19T07:15:31.192Z,13.57
2023-03-19T07:17:57.541Z,13.50
2023-03-19T07:20:23.876Z,13.49
2023-03-19T07:22:50.212Z,13.45
2023-03-19T07:25:16.544Z,13.43
2023-03-19T07:27:42.959Z,13.39
2023-03-19T07:30:09.285Z,13.28
2023-03-19T07:32:35.723Z,13.30
2023-03-19T07:35:02.146Z,13.32
2023-03-19T07:37:28.484Z,13.34
2023-03-19T07:39:54.845Z,13.05
2023-03-19T07:42:21.195Z,12.79
2023-03-19T07:44:47.533Z,12.80
2023-03-19T07:47:27.929Z,13.03
2023-03-19T07:49:54.743Z,13.20
2023-03-19T07:52:21.099Z,13.32
2023-03-19T07:54:47.530Z,13.39
2023-03-19T07:57:13.932Z,13.46
2023-03-19T07:59:40.428Z,13.53
2023-03-19T08:02:06.835Z,13.59
2023-03-19T08:04:33.327Z,13.67
2023-03-19T08:06:59.799Z,13.71
2023-03-19T08:09:26.323Z,13.75
2023-03-19T08:11:52.733Z,13.81
2023-03-19T08:14:19.183Z,13.74
2023-03-19T08:16:45.638Z,13.71
2023-03-19T08:19:12.047Z,13.66
2023-03-19T08:21:38.463Z,13.58
2023-03-19T08:24:05.168Z,13.34
2023-03-19T08:26:31.609Z,13.15
2023-03-19T08:28:58.029Z,13.27
2023-03-19T08:31:24.467Z,13.38
2023-03-19T08:33:50.913Z,13.48
2023-03-19T08:36:17.297Z,13.59
2023-03-19T08:38:43.650Z,13.64
2023-03-19T08:41:09.996Z,13.71
2023-03-19T08:43:36.360Z,13.78
2023-03-19T08:46:02.731Z,13.85
2023-03-19T08:48:29.108Z,13.93
2023-03-19T08:50:55.459Z,13.96
2023-03-19T08:53:21.792Z,13.94
2023-03-19T08:55:48.149Z,13.95
2023-03-19T08:58:14.498Z,13.85
2023-03-19T09:00:40.825Z,13.82
2023-03-19T09:03:07.190Z,13.80
2023-03-19T09:05:33.550Z,13.84
2023-03-19T09:07:59.899Z,13.83
2023-03-19T09:10:26.287Z,13.83
2023-03-19T09:12:52.735Z,13.86
2023-03-19T09:15:19.185Z,13.89
2023-03-19T09:17:45.648Z,13.95
2023-03-19T09:20:12.074Z,14.01
2023-03-19T09:22:38.502Z,14.06
2023-03-19T09:25:05.069Z,14.14
2023-03-19T09:27:31.475Z,14.13
2023-03-19T09:29:57.865Z,13.99
2023-03-19T09:32:24.250Z,14.12
2023-03-19T09:34:50.591Z,14.25
2023-03-19T09:37:16.955Z,14.41
2023-03-19T09:39:43.305Z,14.49
2023-03-19T09:42:09.679Z,14.51
2023-03-19T09:44:36.092Z,14.44
2023-03-19T09:47:02.494Z,14.45
2023-03-19T09:49:28.840Z,14.49
2023-03-19T09:51:55.185Z,14.50
2023-03-19T09:54:21.543Z,14.37
2023-03-19T09:56:47.881Z,14.43
2023-03-19T09:59:14.240Z,14.40
2023-03-19T10:01:40.718Z,14.43
2023-03-19T10:04:07.167Z,14.42
2023-03-19T10:06:33.558Z,14.39
2023-03-19T10:08:59.993Z,14.21
2023-03-19T10:11:26.371Z,14.06
2023-03-19T10:13:53.954Z,14.02
2023-03-19T10:16:20.339Z,14.10
2023-03-19T10:18:46.994Z,14.02
2023-03-19T10:21:13.538Z,14.16
2023-03-19T10:23:39.984Z,14.36
2023-03-19T10:26:06.398Z,14.38
2023-03-19T10:28:32.786Z,14.38
2023-03-19T10:31:01.481Z,14.39
2023-03-19T10:33:28.837Z,14.43
2023-03-19T10:35:55.275Z,14.41
2023-03-19T10:38:21.622Z,14.45
2023-03-19T10:40:47.974Z,14.43
2023-03-19T10:43:14.303Z,14.37
2023-03-19T10:45:41.169Z,14.25
2023-03-19T10:48:07.760Z,14.22
2023-03-19T10:50:34.119Z,13.74
2023-03-19T10:53:00.497Z,13.81
2023-03-19T10:55:26.825Z,13.92
2023-03-19T10:57:53.180Z,13.94
2023-03-19T11:00:19.560Z,13.92
2023-03-19T11:02:45.896Z,13.78
2023-03-19T11:05:12.243Z,13.83
2023-03-19T11:07:38.628Z,13.85
2023-03-19T11:10:04.989Z,13.85
2023-03-19T11:12:31.320Z,13.88
2023-03-19T11:14:57.700Z,13.95
2023-03-19T11:17:24.102Z,14.01
2023-03-19T11:19:50.453Z,14.07
2023-03-19T11:22:18.455Z,14.06
2023-03-19T11:24:46.717Z,14.10
2023-03-19T11:27:13.091Z,14.01
2023-03-19T11:29:39.525Z,13.94
2023-03-19T11:32:20.338Z,14.09
2023-03-19T11:34:47.337Z,14.18
2023-03-19T11:37:13.776Z,14.21
2023-03-19T11:39:40.095Z,14.18
2023-03-19T11:42:06.511Z,14.18
2023-03-19T11:44:32.873Z,14.23
2023-03-19T11:46:59.237Z,14.28
2023-03-19T11:49:25.714Z,14.33
2023-03-19T11:51:52.165Z,14.35
2023-03-19T11:54:19.645Z,14.41
2023-03-19T11:56:46.076Z,14.42
2023-03-19T11:59:12.442Z,14.40
2023-03-19T12:01:39.361Z,14.42
2023-03-19T12:04:05.846Z,14.42
2023-03-19T12:06:32.266Z,14.18
2023-03-19T12:08:58.654Z,14.25
2023-03-19T12:11:25.092Z,14.31
2023-03-19T12:13:51.454Z,14.38
2023-03-19T12:16:17.957Z,14.41
2023-03-19T12:18:44.356Z,14.45
2023-03-19T12:21:10.710Z,14.30
2023-03-19T12:23:37.054Z,14.26
2023-03-19T12:26:03.422Z,14.36
2023-03-19T12:28:29.822Z,14.45
2023-03-19T12:30:56.358Z,14.48
2023-03-19T12:33:22.762Z,14.52
2023-03-19T12:35:49.195Z,14.54
2023-03-19T12:38:15.542Z,14.47
2023-03-19T12:40:41.958Z,14.48
2023-03-19T12:43:08.394Z,14.50
2023-03-19T12:45:35.070Z,14.51
2023-03-19T12:48:01.585Z,14.49
2023-03-19T12:50:28.023Z,14.39
2023-03-19T12:52:55.217Z,14.42
2023-03-19T12:55:22.414Z,14.45
2023-03-19T12:57:48.909Z,14.40
2023-03-19T13:00:15.412Z,14.40
2023-03-19T13:02:41.815Z,14.43
2023-03-19T13:05:08.340Z,14.57
2023-03-19T13:07:34.806Z,14.70
2023-03-19T13:10:01.162Z,14.64
2023-03-19T13:12:27.587Z,14.74
2023-03-19T13:14:53.928Z,14.73
2023-03-19T13:17:21.489Z,14.73
2023-03-19T13:19:47.933Z,14.71
2023-03-19T13:22:14.299Z,14.74
2023-03-19T13:24:40.663Z,14.77
2023-03-19T13:27:07.017Z,14.84
2023-03-19T13:29:33.546Z,14.72
2023-03-19T13:31:59.965Z,14.78
2023-03-19T13:34:26.374Z,14.80
2023-03-19T13:36:52.731Z,14.64
2023-03-19T13:39:19.131Z,14.68
2023-03-19T13:41:45.486Z,14.79
2023-03-19T13:44:11.874Z,14.83
2023-03-19T13:46:38.255Z,14.92
2023-03-19T13:49:04.642Z,14.96
2023-03-19T13:51:30.978Z,14.98
2023-03-19T13:53:57.398Z,14.96
2023-03-19T13:56:30.126Z,14.88
2023-03-19T13:58:56.968Z,14.88
2023-03-19T14:01:23.425Z,14.86
2023-03-19T14:03:49.914Z,14.79
2023-03-19T14:06:16.324Z,14.60
2023-03-19T14:08:42.652Z,14.65
2023-03-19T14:11:09.073Z,14.67
2023-03-19T14:13:35.384Z,14.57
2023-03-19T14:16:01.730Z,14.60
2023-03-19T14:18:28.160Z,14.67
2023-03-19T14:20:54.812Z,14.78
2023-03-19T14:23:23.425Z,14.84
2023-03-19T14:25:51.396Z,14.92
2023-03-19T14:28:17.761Z,14.98
2023-03-19T14:30:44.122Z,14.93
2023-03-19T14:33:10.515Z,14.84
2023-03-19T14:35:36.962Z,14.79
2023-03-19T14:38:03.344Z,14.80
2023-03-19T14:40:29.719Z,14.79
2023-03-19T14:42:56.198Z,14.82
2023-03-19T14:45:22.641Z,14.86
2023-03-19T14:47:48.973Z,14.91
2023-03-19T14:50:15.404Z,14.90
2023-03-19T14:52:41.753Z,14.93
2023-03-19T14:55:08.156Z,14.91
2023-03-19T14:57:34.595Z,14.91
2023-03-19T15:00:01.046Z,14.97
2023-03-19T15:02:27.460Z,15.03
2023-03-19T15:04:53.837Z,15.09
2023-03-19T15:07:20.202Z,15.11
2023-03-19T15:09:46.566Z,15.10
2023-03-19T15:12:13.012Z,15.05
2023-03-19T15:14:39.443Z,14.99
2023-03-19T15:17:05.866Z,14.96
2023-03-19T15:19:32.347Z,14.94
2023-03-19T15:21:58.808Z,14.91
2023-03-19T15:24:25.173Z,14.87
2023-03-19T15:26:51.523Z,14.87
2023-03-19T15:29:18.981Z,14.87
2023-03-19T15:31:51.648Z,14.84
2023-03-19T15:34:20.100Z,14.83
2023-03-19T15:36:46.577Z,14.87
2023-03-19T15:39:12.938Z,14.83
2023-03-19T15:41:39.537Z,14.82
2023-03-19T15:44:05.898Z,14.89
2023-03-19T15:46:32.377Z,14.79
2023-03-19T15:48:58.751Z,14.77
2023-03-19T15:51:25.157Z,14.77
2023-03-19T15:53:51.617Z,14.70
2023-03-19T15:56:17.973Z,14.71
2023-03-19T15:58:44.361Z,14.65
2023-03-19T16:01:10.830Z,14.57
2023-03-19T16:03:37.227Z,14.61
2023-03-19T16:06:03.695Z,14.63
2023-03-19T16:08:31.427Z,14.55
2023-03-19T16:10:57.906Z,14.39
2023-03-19T16:13:24.321Z,14.40
2023-03-19T16:15:55.105Z,14.33
2023-03-19T16:18:21.491Z,14.08
2023-03-19T16:20:47.917Z,14.13
2023-03-19T16:23:14.283Z,14.24
2023-03-19T16:25:40.630Z,14.31
2023-03-19T16:28:06.982Z,14.26
2023-03-19T16:30:34.813Z,14.36
2023-03-19T16:33:02.767Z,14.52
2023-03-19T16:35:29.428Z,14.43
2023-03-19T16:37:57.077Z,14.53
2023-03-19T16:40:23.522Z,14.52
2023-03-19T16:42:51.901Z,14.55
2023-03-19T16:45:18.286Z,14.62
2023-03-19T16:47:44.746Z,14.64
2023-03-19T16:50:11.162Z,14.63
2023-03-19T16:52:37.661Z,14.60
2023-03-19T16:55:04.149Z,14.59
2023-03-19T16:57:30.594Z,14.57
2023-03-19T16:59:57.066Z,14.56
2023-03-19T17:02:23.506Z,14.56
2023-03-19T17:04:49.971Z,14.54
2023-03-19T17:07:16.531Z,14.57
2023-03-19T17:09:42.909Z,14.55
2023-03-19T17:12:09.382Z,14.57
2023-03-19T17:14:35.716Z,14.57
2023-03-19T17:17:02.159Z,14.51
2023-03-19T17:19:28.574Z,14.48
2023-03-19T17:21:54.923Z,14.47
2023-03-19T17:24:21.436Z,14.44
2023-03-19T17:26:47.834Z,14.42
2023-03-19T17:29:14.283Z,14.42
2023-03-19T17:31:40.636Z,14.38
2023-03-19T17:34:07.000Z,14.38
2023-03-19T17:36:33.400Z,14.34
2023-03-19T17:39:02.503Z,14.28
2023-03-19T17:41:28.828Z,14.25
2023-03-19T17:43:55.166Z,14.25
2023-03-19T17:46:21.570Z,14.28
2023-03-19T17:48:47.933Z,14.26
2023-03-19T17:51:14.291Z,14.25
2023-03-19T17:53:40.672Z,14.24
2023-03-19T17:56:07.033Z,14.22
2023-03-19T17:58:33.544Z,14.21
2023-03-19T18:00:59.982Z,14.22
2023-03-19T18:03:27.648Z,14.17
2023-03-19T18:05:54.101Z,14.16
2023-03-19T18:08:20.515Z,14.19
2023-03-19T18:10:46.895Z,14.16
2023-03-19T18:13:13.674Z,14.15
2023-03-19T18:15:40.046Z,14.09
2023-03-19T18:18:06.476Z,14.01
2023-03-19T18:20:32.924Z,13.95
2023-03-19T18:22:59.320Z,13.98
2023-03-19T18:25:25.662Z,13.98
2023-03-19T18:27:52.079Z,13.98
2023-03-19T18:30:18.428Z,13.98
2023-03-19T18:32:44.801Z,13.98
2023-03-19T18:35:11.228Z,13.89
2023-03-19T18:37:37.628Z,13.79
2023-03-19T18:40:04.009Z,13.43
2023-03-19T18:42:30.379Z,13.51
2023-03-19T18:44:56.795Z,13.54
2023-03-19T18:47:23.196Z,13.59
2023-03-19T18:49:49.588Z,13.44
2023-03-19T18:52:19.102Z,13.36
2023-03-19T18:54:45.861Z,13.25
2023-03-19T18:57:12.271Z,13.19
2023-03-19T18:59:38.600Z,13.10
2023-03-19T19:02:05.159Z,12.61
2023-03-19T19:04:31.642Z,12.39
2023-03-19T19:06:57.996Z,12.32
2023-03-19T19:09:24.382Z,12.27
2023-03-19T19:11:52.810Z,12.30
2023-03-19T19:14:19.227Z,12.53
2023-03-19T19:16:45.812Z,12.65
2023-03-19T19:19:12.199Z,12.52
2023-03-19T19:21:38.599Z,12.70
2023-03-19T19:24:04.972Z,12.77
2023-03-19T19:26:31.411Z,12.84
2023-03-19T19:28:57.789Z,12.95
2023-03-19T19:31:24.422Z,12.98
2023-03-19T19:33:55.696Z,13.03
2023-03-19T19:36:24.146Z,12.98
2023-03-19T19:38:50.519Z,13.01
2023-03-19T19:41:16.879Z,13.01
2023-03-19T19:43:46.093Z,13.00
2023-03-19T19:46:12.476Z,12.99
2023-03-19T19:48:38.954Z,13.00
2023-03-19T19:51:08.553Z,12.85
2023-03-19T19:53:35.047Z,12.85
2023-03-19T19:56:01.386Z,12.92
2023-03-19T19:58:27.791Z,12.92
2023-03-19T20:01:03.456Z,12.80
2023-03-19T20:03:33.651Z,12.67
2023-03-19T20:06:02.810Z,12.37
2023-03-19T20:08:35.437Z,12.30
2023-03-19T20:11:01.824Z,12.41
2023-03-19T20:13:28.193Z,12.34
2023-03-19T20:15:55.891Z,12.45
2023-03-19T20:18:22.267Z,12.57
2023-03-19T20:20:48.642Z,12.65
2023-03-19T20:23:14.972Z,12.74
2023-03-19T20:25:42.776Z,12.80
2023-03-19T20:28:11.412Z,12.83
2023-03-19T20:30:37.924Z,12.83
2023-03-19T20:33:05.754Z,12.89
2023-03-19T20:35:34.547Z,12.93
2023-03-19T20:38:01.135Z,12.91
2023-03-19T20:40:27.592Z,12.90
2023-03-19T20:42:53.924Z,12.88
2023-03-19T20:45:20.269Z,12.84
2023-03-19T20:47:46.655Z,12.81
2023-03-19T20:50:13.124Z,12.82
2023-03-19T20:52:39.520Z,12.82
2023-03-19T20:55:05.909Z,12.81
2023-03-19T20:57:32.342Z,12.87
2023-03-19T20:59:58.689Z,12.89
2023-03-19T21:02:25.098Z,12.88
2023-03-19T21:04:51.463Z,12.89
2023-03-19T21:07:17.793Z,12.92
2023-03-19T21:09:44.217Z,12.92
2023-03-19T21:12:10.648Z,12.94
2023-03-19T21:14:37.042Z,12.93
2023-03-19T21:17:03.429Z,12.96
2023-03-19T21:19:29.845Z,12.94
2023-03-19T21:21:56.208Z,12.91
2023-03-19T21:24:22.602Z,12.95
2023-03-19T21:26:49.061Z,12.95
2023-03-19T21:29:15.473Z,12.91
2023-03-19T21:31:41.919Z,12.86
2023-03-19T21:34:08.344Z,12.86
2023-03-19T21:36:34.689Z,12.86
2023-03-19T21:39:01.049Z,12.71
2023-03-19T21:41:27.395Z,12.76
2023-03-19T21:43:53.809Z,12.80
2023-03-19T21:46:24.472Z,12.83
2023-03-19T21:48:51.458Z,12.85
2023-03-19T21:51:17.840Z,12.79
2023-03-19T21:53:44.205Z,12.85
2023-03-19T21:56:10.556Z,12.87
2023-03-19T21:58:36.919Z,12.85
2023-03-19T22:01:03.331Z,12.86
2023-03-19T22:03:29.734Z,12.87
2023-03-19T22:05:56.084Z,12.86
2023-03-19T22:08:22.436Z,12.68
2023-03-19T22:10:48.801Z,12.68
2023-03-19T22:13:15.128Z,12.71
2023-03-19T22:15:41.512Z,12.48
2023-03-19T22:18:07.945Z,12.40
2023-03-19T22:20:34.344Z,12.28
2023-03-19T22:23:00.726Z,12.42
2023-03-19T22:25:27.072Z,12.50
2023-03-19T22:27:53.432Z,12.54
2023-03-19T22:30:19.755Z,12.53
2023-03-19T22:32:46.136Z,12.57
2023-03-19T22:35:12.634Z,12.63
2023-03-19T22:37:38.954Z,12.65
2023-03-19T22:40:05.307Z,12.66
2023-03-19T22:42:31.659Z,12.69
2023-03-19T22:44:58.011Z,12.69
2023-03-19T22:47:24.337Z,12.71
2023-03-19T22:49:50.721Z,12.72
2023-03-19T22:52:17.061Z,12.74
2023-03-19T22:54:43.432Z,12.75
2023-03-19T22:57:09.826Z,12.73
2023-03-19T22:59:36.179Z,12.75
2023-03-19T23:02:02.533Z,12.74
2023-03-19T23:04:28.949Z,12.70
2023-03-19T23:06:55.454Z,12.65
2023-03-19T23:09:21.848Z,12.65
2023-03-19T23:11:48.343Z,12.60
2023-03-19T23:14:27.932Z,12.60
2023-03-19T23:16:55.843Z,12.60
2023-03-19T23:19:22.215Z,12.60
2023-03-19T23:21:48.554Z,12.62
2023-03-19T23:24:14.894Z,12.62
2023-03-19T23:26:41.216Z,12.66
2023-03-19T23:29:07.549Z,12.63
2023-03-19T23:31:33.895Z,12.60
2023-03-19T23:34:00.206Z,12.54
2023-03-19T23:36:26.581Z,12.54
2023-03-19T23:38:52.942Z,12.54
2023-03-19T23:41:19.343Z,12.55
2023-03-19T23:43:45.722Z,12.54
2023-03-19T23:46:12.109Z,12.56
2023-03-19T23:48:38.477Z,12.57
2023-03-19T23:51:04.803Z,12.57
2023-03-19T23:53:31.153Z,12.58
2023-03-19T23:55:57.489Z,12.59
2023-03-19T23:58:23.831Z,12.57
